createdAt,value
2018-10-01T00:02:24.519Z,95.70
2018-10-01T00:04:52.730Z,95.50
2018-10-01T00:07:20.957Z,95.90
2018-10-01T00:09:49.173Z,96.50
2018-10-01T00:12:17.424Z,96.20
2018-10-01T00:14:45.637Z,95.90
2018-10-01T00:17:13.844Z,96.00
2018-10-01T00:19:47.426Z,95.80
2018-10-01T00:22:21.093Z,95.80
2018-10-01T00:24:49.284Z,96.00
2018-10-01T00:27:17.466Z,95.70
2018-10-01T00:29:45.669Z,95.90
2018-10-01T00:32:13.856Z,95.80
2018-10-01T00:34:42.066Z,95.90
2018-10-01T00:37:10.308Z,95.80
2018-10-01T00:39:38.476Z,95.60
2018-10-01T00:42:06.709Z,95.80
2018-10-01T00:44:34.913Z,95.90
2018-10-01T00:47:03.061Z,95.70
2018-10-01T00:49:31.253Z,95.90
2018-10-01T00:51:59.466Z,95.80
2018-10-01T00:54:27.681Z,95.50
2018-10-01T00:56:55.893Z,95.60
2018-10-01T00:59:24.057Z,95.60
2018-10-01T01:01:52.265Z,96.10
2018-10-01T01:04:20.413Z,96.00
2018-10-01T01:06:48.612Z,95.70
2018-10-01T01:09:16.825Z,97.00
2018-10-01T01:11:44.974Z,97.60
2018-10-01T01:14:13.169Z,98.50
2018-10-01T01:16:41.368Z,98.50
2018-10-01T01:19:09.625Z,98.50
2018-10-01T01:21:37.813Z,98.50
2018-10-01T01:24:06.057Z,98.50
2018-10-01T01:26:34.258Z,98.50
2018-10-01T01:29:02.441Z,98.50
2018-10-01T01:31:30.682Z,98.50
2018-10-01T01:33:58.853Z,98.50
2018-10-01T01:36:27.145Z,98.50
2018-10-01T01:38:55.347Z,98.50
2018-10-01T01:41:23.505Z,98.50
2018-10-01T01:43:51.713Z,98.50
2018-10-01T01:46:19.889Z,98.50
2018-10-01T01:48:48.068Z,98.50
2018-10-01T01:51:16.253Z,98.50
2018-10-01T01:53:44.396Z,98.50
2018-10-01T01:56:12.583Z,98.50
2018-10-01T01:58:40.737Z,98.50
2018-10-01T02:01:08.973Z,98.50
2018-10-01T02:03:37.218Z,98.50
2018-10-01T02:06:05.479Z,98.50
2018-10-01T02:08:33.793Z,98.50
2018-10-01T02:11:01.956Z,98.50
2018-10-01T02:13:30.232Z,98.50
2018-10-01T02:15:58.421Z,98.50
2018-10-01T02:18:26.605Z,98.50
2018-10-01T02:20:54.800Z,98.50
2018-10-01T02:23:22.973Z,98.50
2018-10-01T02:25:51.169Z,98.50
2018-10-01T02:28:19.365Z,98.50
2018-10-01T02:30:47.537Z,98.50
2018-10-01T02:33:15.726Z,98.50
2018-10-01T02:35:43.912Z,98.50
2018-10-01T02:38:12.156Z,98.50
2018-10-01T02:40:40.380Z,98.50
2018-10-01T02:43:08.529Z,98.50
2018-10-01T02:45:36.749Z,98.50
2018-10-01T02:48:04.983Z,98.50
2018-10-01T02:50:33.172Z,98.50
2018-10-01T02:53:06.725Z,98.50
2018-10-01T02:55:34.923Z,98.50
2018-10-01T02:58:03.124Z,98.50
2018-10-01T03:00:31.312Z,98.50
2018-10-01T03:02:59.563Z,98.50
2018-10-01T03:05:27.745Z,98.50
2018-10-01T03:07:55.972Z,98.50
2018-10-01T03:10:24.157Z,98.50
2018-10-01T03:12:52.356Z,98.50
2018-10-01T03:15:20.549Z,98.50
2018-10-01T03:17:48.764Z,98.50
2018-10-01T03:20:16.979Z,98.50
2018-10-01T03:22:45.161Z,98.50
2018-10-01T03:25:13.336Z,98.50
2018-10-01T03:27:41.529Z,98.50
2018-10-01T03:30:09.693Z,98.50
2018-10-01T03:32:37.893Z,98.50
2018-10-01T03:35:06.121Z,98.50
2018-10-01T03:37:34.322Z,98.50
2018-10-01T03:40:02.623Z,98.50
2018-10-01T03:42:30.769Z,98.50
2018-10-01T03:44:58.974Z,98.50
2018-10-01T03:47:27.167Z,98.50
2018-10-01T03:49:55.357Z,98.50
2018-10-01T03:52:23.536Z,98.50
2018-10-01T03:54:51.693Z,98.50
2018-10-01T03:57:19.881Z,98.50
2018-10-01T03:59:48.082Z,98.50
2018-10-01T04:02:16.228Z,98.50
2018-10-01T04:04:44.441Z,98.50
2018-10-01T04:07:12.613Z,98.50
2018-10-01T04:09:40.805Z,98.50
2018-10-01T04:12:08.966Z,98.50
2018-10-01T04:14:37.197Z,98.50
2018-10-01T04:17:05.437Z,98.50
2018-10-01T04:19:33.581Z,98.50
2018-10-01T04:22:01.800Z,98.50
2018-10-01T04:24:29.949Z,98.50
2018-10-01T04:26:58.148Z,98.50
2018-10-01T04:29:26.352Z,98.50
2018-10-01T04:31:54.533Z,98.50
2018-10-01T04:34:22.735Z,98.50
2018-10-01T04:36:50.957Z,98.50
2018-10-01T04:39:19.140Z,98.50
2018-10-01T04:41:47.330Z,98.50
2018-10-01T04:44:15.491Z,98.50
2018-10-01T04:46:43.769Z,98.50
2018-10-01T04:49:11.944Z,98.50
2018-10-01T04:51:41.708Z,98.50
2018-10-01T04:54:09.946Z,98.50
2018-10-01T04:56:38.105Z,98.50
2018-10-01T04:59:06.753Z,98.50
2018-10-01T05:01:34.920Z,98.50
2018-10-01T05:04:03.125Z,98.50
2018-10-01T05:06:31.328Z,98.50
2018-10-01T05:08:59.494Z,98.50
2018-10-01T05:11:27.694Z,98.50
2018-10-01T05:13:55.905Z,98.50
2018-10-01T05:16:24.097Z,98.50
2018-10-01T05:18:52.285Z,98.50
2018-10-01T05:21:20.441Z,98.50
2018-10-01T05:23:48.616Z,98.50
2018-10-01T05:26:16.772Z,98.50
2018-10-01T05:28:44.997Z,98.50
2018-10-01T05:31:13.281Z,98.50
2018-10-01T05:33:41.425Z,98.50
2018-10-01T05:36:09.637Z,98.50
2018-10-01T05:38:37.825Z,98.50
2018-10-01T05:41:06.477Z,98.50
2018-10-01T05:43:34.628Z,98.50
2018-10-01T05:46:02.812Z,98.50
2018-10-01T05:48:30.960Z,98.50
2018-10-01T05:50:59.173Z,98.50
2018-10-01T05:53:27.404Z,98.50
2018-10-01T05:55:55.654Z,98.50
2018-10-01T05:58:23.851Z,98.50
2018-10-01T06:00:52.022Z,98.50
2018-10-01T06:03:20.280Z,98.50
2018-10-01T06:05:48.485Z,98.50
2018-10-01T06:08:16.645Z,98.50
2018-10-01T06:10:44.829Z,98.50
2018-10-01T06:13:12.984Z,98.50
2018-10-01T06:15:41.189Z,98.50
2018-10-01T06:18:09.400Z,98.50
2018-10-01T06:20:37.614Z,98.50
2018-10-01T06:23:05.933Z,98.50
2018-10-01T06:25:34.288Z,98.50
2018-10-01T06:28:02.576Z,98.50
2018-10-01T06:30:30.755Z,98.50
2018-10-01T06:32:58.964Z,98.50
2018-10-01T06:35:27.125Z,98.50
2018-10-01T06:37:55.431Z,98.50
2018-10-01T06:40:23.572Z,98.50
2018-10-01T06:42:51.786Z,98.50
2018-10-01T06:45:19.941Z,98.50
2018-10-01T06:47:48.136Z,98.50
2018-10-01T06:50:16.315Z,98.50
2018-10-01T06:52:44.474Z,98.50
2018-10-01T06:55:12.673Z,98.50
2018-10-01T06:57:40.841Z,98.50
2018-10-01T07:00:09.612Z,98.50
2018-10-01T07:02:37.789Z,98.50
2018-10-01T07:05:06.165Z,98.50
2018-10-01T07:07:34.367Z,98.50
2018-10-01T07:10:02.581Z,98.50
2018-10-01T07:12:30.771Z,98.50
2018-10-01T07:14:58.928Z,98.50
2018-10-01T07:17:27.242Z,98.50
2018-10-01T07:19:55.482Z,98.50
2018-10-01T07:22:23.780Z,98.50
2018-10-01T07:24:51.941Z,98.50
2018-10-01T07:27:20.196Z,98.50
2018-10-01T07:29:48.393Z,98.50
2018-10-01T07:32:16.632Z,98.50
2018-10-01T07:34:44.836Z,98.50
2018-10-01T07:37:13.086Z,98.50
2018-10-01T07:39:41.294Z,98.50
2018-10-01T07:42:09.457Z,98.50
2018-10-01T07:44:37.664Z,98.50
2018-10-01T07:47:05.863Z,98.50
2018-10-01T07:49:34.067Z,98.50
2018-10-01T07:52:02.261Z,98.50
2018-10-01T07:54:30.422Z,98.50
2018-10-01T07:56:58.691Z,98.50
2018-10-01T07:59:26.989Z,98.50
2018-10-01T08:01:55.174Z,98.50
2018-10-01T08:04:23.399Z,98.50
2018-10-01T08:06:51.581Z,98.50
2018-10-01T08:09:19.857Z,98.50
2018-10-01T08:11:48.085Z,98.50
2018-10-01T08:14:16.328Z,98.50
2018-10-01T08:16:44.549Z,98.50
2018-10-01T08:19:12.714Z,98.50
2018-10-01T08:21:40.925Z,98.50
2018-10-01T08:24:09.087Z,98.50
2018-10-01T08:26:37.322Z,98.50
2018-10-01T08:29:05.584Z,98.50
2018-10-01T08:31:33.857Z,98.50
2018-10-01T08:34:02.044Z,98.50
2018-10-01T08:36:30.205Z,98.50
2018-10-01T08:38:58.444Z,98.50
2018-10-01T08:41:26.725Z,98.50
2018-10-01T08:43:54.886Z,98.50
2018-10-01T08:46:23.108Z,98.50
2018-10-01T08:49:00.297Z,98.50
2018-10-01T08:51:47.525Z,98.50
2018-10-01T08:54:23.392Z,97.60
2018-10-01T08:56:51.609Z,98.30
2018-10-01T08:59:19.834Z,97.20
2018-10-01T09:01:48.025Z,97.70
2018-10-01T09:04:16.201Z,98.40
2018-10-01T09:06:44.406Z,98.50
2018-10-01T09:09:12.865Z,98.30
2018-10-01T09:11:41.031Z,97.60
2018-10-01T09:14:09.401Z,97.10
2018-10-01T09:16:37.605Z,97.80
2018-10-01T09:19:05.922Z,98.50
2018-10-01T09:21:34.258Z,96.20
2018-10-01T09:24:02.468Z,96.70
2018-10-01T09:26:30.720Z,97.80
2018-10-01T09:28:58.928Z,97.00
2018-10-01T09:31:27.367Z,96.60
2018-10-01T09:33:55.561Z,97.00
2018-10-01T09:36:23.916Z,98.50
2018-10-01T09:38:52.405Z,98.00
2018-10-01T09:41:20.580Z,97.70
2018-10-01T09:43:48.801Z,98.50
2018-10-01T09:46:17.066Z,98.50
2018-10-01T09:48:45.550Z,98.10
2018-10-01T09:51:13.753Z,98.50
2018-10-01T09:53:42.039Z,98.50
2018-10-01T09:56:10.325Z,98.50
2018-10-01T09:58:38.613Z,98.50
2018-10-01T10:01:14.999Z,97.80
2018-10-01T10:03:43.264Z,98.00
2018-10-01T10:06:11.473Z,98.50
2018-10-01T10:08:40.012Z,98.50
2018-10-01T10:11:08.369Z,97.80
2018-10-01T10:13:36.565Z,98.10
2018-10-01T10:16:04.893Z,96.40
2018-10-01T10:18:33.109Z,95.90
2018-10-01T10:21:01.358Z,93.70
2018-10-01T10:23:29.534Z,93.40
2018-10-01T10:25:57.793Z,94.20
2018-10-01T10:28:26.054Z,92.40
2018-10-01T10:30:54.338Z,92.20
2018-10-01T10:33:22.558Z,93.50
2018-10-01T10:35:50.737Z,93.20
2018-10-01T10:38:19.035Z,93.90
2018-10-01T10:40:47.238Z,93.90
2018-10-01T10:43:15.478Z,93.40
2018-10-01T10:45:43.686Z,94.40
2018-10-01T10:48:13.671Z,93.80
2018-10-01T10:50:42.046Z,93.30
2018-10-01T10:53:10.189Z,93.00
2018-10-01T10:55:38.442Z,94.00
2018-10-01T10:58:06.697Z,94.00
2018-10-01T11:00:35.878Z,94.70
2018-10-01T11:03:04.162Z,93.00
2018-10-01T11:05:32.334Z,94.20
2018-10-01T11:08:00.567Z,92.50
2018-10-01T11:10:28.789Z,93.00
2018-10-01T11:12:57.635Z,92.20
2018-10-01T11:15:25.989Z,92.40
2018-10-01T11:17:54.302Z,91.70
2018-10-01T11:20:22.683Z,93.30
2018-10-01T11:22:50.844Z,92.10
2018-10-01T11:25:19.097Z,92.80
2018-10-01T11:27:47.405Z,93.60
2018-10-01T11:30:15.505Z,93.90
2018-10-01T11:32:43.803Z,93.20
2018-10-01T11:35:12.974Z,92.80
2018-10-01T11:37:41.138Z,92.80
2018-10-01T11:40:09.405Z,92.50
2018-10-01T11:42:37.581Z,90.70
2018-10-01T11:45:06.251Z,91.70
2018-10-01T11:47:34.397Z,90.90
2018-10-01T11:50:02.669Z,91.40
2018-10-01T11:52:30.885Z,91.60
2018-10-01T11:54:59.065Z,90.80
2018-10-01T11:57:27.338Z,90.40
2018-10-01T11:59:55.615Z,90.40
2018-10-01T12:02:23.889Z,89.40
2018-10-01T12:04:52.144Z,88.60
2018-10-01T12:07:20.313Z,87.70
2018-10-01T12:09:48.638Z,87.80
2018-10-01T12:12:16.785Z,87.90
2018-10-01T12:14:45.019Z,88.70
2018-10-01T12:17:13.217Z,89.20
2018-10-01T12:19:41.422Z,88.10
2018-10-01T12:22:09.734Z,89.10
2018-10-01T12:24:37.878Z,88.90
2018-10-01T12:27:06.169Z,89.20
2018-10-01T12:29:34.407Z,88.30
2018-10-01T12:32:02.601Z,87.10
2018-10-01T12:34:30.873Z,87.30
2018-10-01T12:36:59.048Z,85.20
2018-10-01T12:39:27.488Z,85.70
2018-10-01T12:41:55.646Z,86.20
2018-10-01T12:44:23.857Z,85.60
2018-10-01T12:46:52.044Z,85.70
2018-10-01T12:49:20.205Z,86.10
2018-10-01T12:51:48.475Z,86.80
2018-10-01T12:54:16.628Z,86.20
2018-10-01T12:56:44.825Z,86.80
2018-10-01T12:59:13.004Z,86.20
2018-10-01T13:01:41.275Z,86.60
2018-10-01T13:04:09.537Z,87.20
2018-10-01T13:06:37.802Z,87.10
2018-10-01T13:09:09.213Z,88.10
2018-10-01T13:11:37.409Z,87.90
2018-10-01T13:14:05.676Z,87.60
2018-10-01T13:16:33.925Z,88.20
2018-10-01T13:19:02.158Z,87.40
2018-10-01T13:21:30.373Z,88.40
2018-10-01T13:23:58.591Z,88.80
2018-10-01T13:26:26.813Z,87.80
2018-10-01T13:28:55.050Z,87.80
2018-10-01T13:31:23.280Z,88.20
2018-10-01T13:33:51.508Z,87.60
2018-10-01T13:36:20.043Z,87.90
2018-10-01T13:38:48.223Z,87.20
2018-10-01T13:41:16.434Z,87.50
2018-10-01T13:43:44.685Z,88.10
2018-10-01T13:46:12.910Z,89.00
2018-10-01T13:48:41.192Z,87.80
2018-10-01T13:51:09.384Z,87.90
2018-10-01T13:53:37.597Z,89.00
2018-10-01T13:56:05.830Z,88.30
2018-10-01T13:58:34.070Z,88.30
2018-10-01T14:01:02.256Z,88.50
2018-10-01T14:03:30.487Z,87.40
2018-10-01T14:05:58.687Z,84.70
2018-10-01T14:08:26.864Z,82.60
2018-10-01T14:10:55.069Z,83.00
2018-10-01T14:13:23.402Z,82.70
2018-10-01T14:15:52.385Z,83.10
2018-10-01T14:18:20.705Z,83.90
2018-10-01T14:20:48.928Z,83.70
2018-10-01T14:23:17.141Z,84.00
2018-10-01T14:25:45.316Z,84.20
2018-10-01T14:28:13.552Z,84.10
2018-10-01T14:30:41.716Z,84.20
2018-10-01T14:33:09.918Z,84.10
2018-10-01T14:35:38.113Z,84.80
2018-10-01T14:38:06.313Z,84.30
2018-10-01T14:40:34.572Z,85.00
2018-10-01T14:43:02.796Z,85.20
2018-10-01T14:45:30.998Z,85.00
2018-10-01T14:47:59.223Z,85.60
2018-10-01T14:50:27.435Z,86.70
2018-10-01T14:52:55.677Z,87.10
2018-10-01T14:55:23.858Z,88.30
2018-10-01T14:57:52.073Z,88.80
2018-10-01T15:00:20.328Z,87.40
2018-10-01T15:02:48.508Z,86.90
2018-10-01T15:05:16.669Z,87.40
2018-10-01T15:07:44.886Z,87.40
2018-10-01T15:10:13.100Z,87.70
2018-10-01T15:12:41.466Z,88.60
2018-10-01T15:15:09.625Z,89.60
2018-10-01T15:17:37.788Z,87.90
2018-10-01T15:20:06.069Z,88.60
2018-10-01T15:22:34.245Z,88.40
2018-10-01T15:25:02.571Z,88.30
2018-10-01T15:27:30.874Z,88.30
2018-10-01T15:29:59.060Z,88.00
2018-10-01T15:32:27.305Z,86.90
2018-10-01T15:34:55.489Z,87.10
2018-10-01T15:37:23.717Z,86.90
2018-10-01T15:39:52.000Z,87.30
2018-10-01T15:42:20.198Z,87.40
2018-10-01T15:44:48.413Z,88.20
2018-10-01T15:47:16.609Z,88.30
2018-10-01T15:49:44.877Z,89.40
2018-10-01T15:52:13.162Z,89.10
2018-10-01T15:54:41.354Z,88.90
2018-10-01T15:57:09.580Z,88.40
2018-10-01T15:59:37.806Z,88.50
2018-10-01T16:02:06.049Z,87.60
2018-10-01T16:04:34.241Z,88.10
2018-10-01T16:07:02.453Z,87.30
2018-10-01T16:09:30.645Z,87.90
2018-10-01T16:11:58.866Z,87.70
2018-10-01T16:14:27.092Z,87.80
2018-10-01T16:16:55.269Z,87.70
2018-10-01T16:19:23.665Z,87.80
2018-10-01T16:21:51.865Z,88.20
2018-10-01T16:24:20.065Z,89.20
2018-10-01T16:26:48.284Z,89.70
2018-10-01T16:29:16.462Z,89.60
2018-10-01T16:31:44.693Z,89.40
2018-10-01T16:34:12.928Z,89.30
2018-10-01T16:36:41.168Z,87.90
2018-10-01T16:39:11.418Z,87.40
2018-10-01T16:41:39.642Z,87.10
2018-10-01T16:44:07.851Z,86.70
2018-10-01T16:46:36.126Z,86.10
2018-10-01T16:49:04.382Z,86.60
2018-10-01T16:51:32.617Z,87.30
2018-10-01T16:54:01.001Z,87.70
2018-10-01T16:56:29.248Z,88.50
2018-10-01T16:58:57.458Z,89.40
2018-10-01T17:01:26.056Z,90.70
2018-10-01T17:03:54.285Z,91.90
2018-10-01T17:06:28.677Z,92.30
2018-10-01T17:08:56.917Z,92.20
2018-10-01T17:11:25.137Z,92.90
2018-10-01T17:13:53.529Z,92.90
2018-10-01T17:16:21.793Z,93.00
2018-10-01T17:18:50.005Z,93.50
2018-10-01T17:21:18.166Z,93.80
2018-10-01T17:23:47.396Z,93.90
2018-10-01T17:26:16.367Z,94.20
2018-10-01T17:28:44.709Z,93.60
2018-10-01T17:31:14.222Z,93.20
2018-10-01T17:33:42.460Z,92.80
2018-10-01T17:36:10.669Z,91.20
2018-10-01T17:38:38.916Z,89.50
2018-10-01T17:41:07.389Z,88.50
2018-10-01T17:43:36.224Z,88.30
2018-10-01T17:46:04.612Z,87.70
2018-10-01T17:48:33.145Z,88.90
2018-10-01T17:51:01.333Z,90.20
2018-10-01T17:53:29.556Z,90.50
2018-10-01T17:55:57.941Z,91.20
2018-10-01T17:58:26.214Z,91.80
2018-10-01T18:00:54.455Z,92.90
2018-10-01T18:03:23.505Z,93.60
2018-10-01T18:05:51.776Z,94.50
2018-10-01T18:08:20.316Z,94.70
2018-10-01T18:10:49.742Z,94.70
2018-10-01T18:13:17.927Z,94.40
2018-10-01T18:15:48.909Z,94.40
2018-10-01T18:18:17.159Z,94.40
2018-10-01T18:20:46.021Z,94.30
2018-10-01T18:23:14.565Z,94.00
2018-10-01T18:25:43.762Z,93.90
2018-10-01T18:28:12.344Z,93.40
2018-10-01T18:30:41.921Z,92.90
2018-10-01T18:33:10.317Z,92.60
2018-10-01T18:35:39.018Z,92.40
2018-10-01T18:38:07.477Z,91.70
2018-10-01T18:40:36.653Z,91.30
2018-10-01T18:43:05.299Z,91.30
2018-10-01T18:45:33.615Z,91.10
2018-10-01T18:48:01.928Z,91.30
2018-10-01T18:50:30.114Z,91.80
2018-10-01T18:52:58.380Z,92.40
2018-10-01T18:55:26.594Z,92.40
2018-10-01T18:57:54.777Z,92.90
2018-10-01T19:00:23.071Z,93.10
2018-10-01T19:02:51.222Z,93.40
2018-10-01T19:05:19.453Z,93.40
2018-10-01T19:07:47.673Z,93.50
2018-10-01T19:10:15.885Z,93.60
2018-10-01T19:12:45.081Z,93.60
2018-10-01T19:15:13.386Z,93.80
2018-10-01T19:17:41.600Z,93.90
2018-10-01T19:20:09.816Z,93.90
2018-10-01T19:22:38.000Z,94.00
2018-10-01T19:25:06.361Z,94.40
2018-10-01T19:27:34.657Z,94.90
2018-10-01T19:30:03.990Z,95.20
2018-10-01T19:32:32.210Z,95.20
2018-10-01T19:35:00.585Z,95.20
2018-10-01T19:37:29.133Z,94.90
2018-10-01T19:39:57.368Z,94.40
2018-10-01T19:42:25.885Z,94.80
2018-10-01T19:44:54.130Z,95.00
2018-10-01T19:47:27.005Z,95.30
2018-10-01T19:49:55.233Z,95.20
2018-10-01T19:52:23.424Z,95.30
2018-10-01T19:54:52.348Z,95.30
2018-10-01T19:57:21.192Z,95.00
2018-10-01T19:59:49.442Z,94.00
2018-10-01T20:02:17.690Z,93.50
2018-10-01T20:04:45.951Z,92.30
2018-10-01T20:07:14.749Z,91.90
2018-10-01T20:09:43.637Z,91.90
2018-10-01T20:12:13.170Z,92.10
2018-10-01T20:14:42.153Z,91.90
2018-10-01T20:17:10.405Z,91.10
2018-10-01T20:19:38.655Z,91.00
2018-10-01T20:22:09.495Z,90.50
2018-10-01T20:24:38.406Z,90.50
2018-10-01T20:27:06.713Z,91.10
2018-10-01T20:29:35.025Z,91.80
2018-10-01T20:32:03.669Z,92.80
2018-10-01T20:34:32.229Z,92.50
2018-10-01T20:37:00.538Z,92.40
2018-10-01T20:39:28.793Z,92.60
2018-10-01T20:41:57.138Z,92.60
2018-10-01T20:44:25.943Z,93.20
2018-10-01T20:46:54.106Z,93.50
2018-10-01T20:49:22.272Z,93.80
2018-10-01T20:51:50.453Z,93.60
2018-10-01T20:54:18.725Z,94.00
2018-10-01T20:56:46.919Z,95.10
2018-10-01T20:59:21.974Z,95.60
2018-10-01T21:01:50.161Z,96.10
2018-10-01T21:04:18.322Z,96.60
2018-10-01T21:06:46.554Z,96.40
2018-10-01T21:09:14.753Z,96.50
2018-10-01T21:11:42.958Z,96.00
2018-10-01T21:14:11.178Z,96.10
2018-10-01T21:16:39.397Z,95.60
2018-10-01T21:19:08.098Z,95.20
2018-10-01T21:21:36.666Z,95.40
2018-10-01T21:24:05.393Z,95.40
2018-10-01T21:26:33.886Z,95.20
2018-10-01T21:29:02.399Z,95.60
2018-10-01T21:31:31.222Z,95.20
2018-10-01T21:33:59.787Z,94.80
2018-10-01T21:36:28.607Z,93.10
2018-10-01T21:38:57.225Z,92.70
2018-10-01T21:41:25.525Z,91.90
2018-10-01T21:43:53.699Z,91.20
2018-10-01T21:46:21.909Z,91.50
2018-10-01T21:48:50.086Z,92.20
2018-10-01T21:51:18.294Z,93.60
2018-10-01T21:53:46.505Z,93.70
2018-10-01T21:56:14.660Z,94.20
2018-10-01T21:58:42.880Z,94.40
2018-10-01T22:01:16.492Z,94.40
2018-10-01T22:03:44.724Z,95.00
2018-10-01T22:06:12.906Z,95.20
2018-10-01T22:08:41.097Z,95.10
2018-10-01T22:11:09.333Z,95.30
2018-10-01T22:13:37.565Z,95.20
2018-10-01T22:16:05.856Z,94.90
2018-10-01T22:18:34.034Z,94.90
2018-10-01T22:21:02.248Z,94.70
2018-10-01T22:23:30.413Z,94.90
2018-10-01T22:25:58.641Z,95.30
2018-10-01T22:28:26.841Z,95.10
2018-10-01T22:30:55.021Z,95.80
2018-10-01T22:33:23.225Z,95.50
2018-10-01T22:35:51.393Z,95.70
2018-10-01T22:38:19.584Z,95.90
2018-10-01T22:40:47.822Z,96.20
2018-10-01T22:43:15.990Z,96.10
2018-10-01T22:45:44.248Z,96.70
2018-10-01T22:48:12.410Z,96.70
2018-10-01T22:50:40.708Z,96.50
2018-10-01T22:53:08.897Z,96.60
2018-10-01T22:55:37.109Z,97.30
2018-10-01T22:58:05.370Z,96.60
2018-10-01T23:00:33.666Z,96.70
2018-10-01T23:03:01.860Z,96.50
2018-10-01T23:05:30.032Z,96.70
2018-10-01T23:07:58.224Z,97.50
2018-10-01T23:10:26.409Z,97.50
2018-10-01T23:12:54.592Z,96.50
2018-10-01T23:15:22.824Z,97.20
2018-10-01T23:17:50.976Z,97.10
2018-10-01T23:20:19.165Z,96.40
2018-10-01T23:22:47.356Z,96.10
2018-10-01T23:25:15.544Z,96.10
2018-10-01T23:27:43.762Z,96.60
2018-10-01T23:30:12.012Z,97.00
2018-10-01T23:32:40.209Z,96.60
2018-10-01T23:35:08.481Z,97.20
2018-10-01T23:37:36.669Z,97.10
2018-10-01T23:40:05.092Z,97.50
2018-10-01T23:42:33.268Z,97.90
2018-10-01T23:45:01.509Z,97.40
2018-10-01T23:47:29.852Z,96.80
2018-10-01T23:49:58.056Z,97.50
2018-10-01T23:52:26.380Z,98.20
2018-10-01T23:54:54.521Z,97.30
2018-10-01T23:57:22.720Z,96.80
2018-10-01T23:59:50.894Z,96.40
